createdAt,value
2023-12-07T00:00:22.791Z,86.54
2023-12-07T00:02:50.524Z,87.38
2023-12-07T00:05:18.257Z,87.16
2023-12-07T00:07:45.949Z,86.70
2023-12-07T00:10:13.735Z,87.15
2023-12-07T00:12:41.471Z,86.79
2023-12-07T00:15:09.177Z,87.00
2023-12-07T00:17:36.935Z,86.72
2023-12-07T00:20:06.280Z,86.72
2023-12-07T00:22:34.316Z,87.26
2023-12-07T00:25:02.072Z,87.18
2023-12-07T00:27:29.757Z,86.71
2023-12-07T00:29:57.400Z,87.50
2023-12-07T00:32:25.484Z,86.83
2023-12-07T00:34:53.487Z,86.88
2023-12-07T00:37:21.238Z,86.93
2023-12-07T00:39:48.982Z,87.04
2023-12-07T00:42:16.640Z,87.06
2023-12-07T00:44:44.895Z,87.34
2023-12-07T00:47:12.615Z,87.68
2023-12-07T00:49:40.762Z,87.20
2023-12-07T00:52:08.446Z,87.71
2023-12-07T00:54:36.981Z,87.24
2023-12-07T00:57:04.698Z,87.80
2023-12-07T00:59:35.591Z,87.50
2023-12-07T01:02:03.504Z,87.64
2023-12-07T01:04:31.303Z,87.72
2023-12-07T01:06:59.440Z,88.08
2023-12-07T01:09:27.217Z,87.53
2023-12-07T01:11:54.910Z,88.36
2023-12-07T01:14:22.554Z,87.47
2023-12-07T01:16:50.217Z,87.91
2023-12-07T01:19:18.744Z,87.70
2023-12-07T01:21:46.428Z,87.23
2023-12-07T01:24:16.336Z,87.43
2023-12-07T01:26:44.581Z,87.86
2023-12-07T01:29:12.909Z,87.46
2023-12-07T01:31:40.676Z,87.73
2023-12-07T01:34:08.384Z,87.89
2023-12-07T01:36:36.364Z,87.83
2023-12-07T01:39:04.422Z,87.41
2023-12-07T01:41:32.228Z,87.59
2023-12-07T01:44:00.226Z,87.04
2023-12-07T01:46:28.020Z,87.45
2023-12-07T01:48:56.016Z,87.99
2023-12-07T01:51:24.045Z,87.38
2023-12-07T01:53:51.727Z,88.02
2023-12-07T01:56:20.109Z,87.92
2023-12-07T01:58:47.774Z,87.76
2023-12-07T02:01:15.511Z,88.33
2023-12-07T02:03:43.277Z,88.03
2023-12-07T02:06:11.709Z,88.41
2023-12-07T02:08:42.947Z,87.83
2023-12-07T02:11:11.433Z,88.31
2023-12-07T02:13:39.462Z,88.35
2023-12-07T02:16:07.189Z,88.04
2023-12-07T02:18:34.808Z,87.87
2023-12-07T02:21:03.139Z,88.29
2023-12-07T02:23:41.270Z,88.10
2023-12-07T02:26:32.029Z,87.59
2023-12-07T02:28:59.706Z,87.52
2023-12-07T02:31:27.360Z,87.97
2023-12-07T02:33:55.463Z,88.33
2023-12-07T02:36:23.233Z,88.12
2023-12-07T02:38:50.834Z,88.07
2023-12-07T02:41:18.432Z,87.83
2023-12-07T02:43:46.092Z,88.70
2023-12-07T02:46:13.860Z,87.88
2023-12-07T02:48:41.507Z,88.00
2023-12-07T02:51:09.164Z,88.26
2023-12-07T02:53:36.799Z,88.36
2023-12-07T02:56:04.705Z,88.48
2023-12-07T02:58:32.409Z,88.54
2023-12-07T03:01:00.536Z,88.45
2023-12-07T03:03:28.349Z,87.61
2023-12-07T03:05:56.096Z,88.42
2023-12-07T03:08:23.735Z,87.70
2023-12-07T03:10:51.348Z,88.20
2023-12-07T03:13:19.033Z,88.50
2023-12-07T03:15:46.677Z,87.82
2023-12-07T03:18:14.660Z,88.13
2023-12-07T03:20:42.710Z,88.06
2023-12-07T03:23:10.329Z,87.88
2023-12-07T03:25:38.434Z,87.33
2023-12-07T03:28:06.172Z,87.64
2023-12-07T03:30:33.753Z,88.01
2023-12-07T03:33:01.475Z,88.34
2023-12-07T03:35:29.236Z,88.05
2023-12-07T03:37:56.893Z,87.82
2023-12-07T03:40:24.572Z,88.18
2023-12-07T03:42:56.811Z,87.64
2023-12-07T03:45:25.365Z,88.28
2023-12-07T03:47:53.108Z,88.21
2023-12-07T03:50:20.779Z,87.61
2023-12-07T03:52:48.457Z,88.29
2023-12-07T03:55:16.183Z,88.33
2023-12-07T03:57:43.826Z,88.37
2023-12-07T04:00:11.795Z,88.03
2023-12-07T04:02:39.445Z,88.96
2023-12-07T04:05:07.110Z,88.29
2023-12-07T04:07:34.860Z,88.52
2023-12-07T04:10:02.641Z,88.75
2023-12-07T04:12:30.301Z,89.16
2023-12-07T04:14:57.950Z,88.96
2023-12-07T04:17:25.591Z,88.42
2023-12-07T04:19:53.339Z,89.30
2023-12-07T04:22:21.368Z,89.02
2023-12-07T04:24:49.082Z,88.76
2023-12-07T04:27:16.701Z,88.55
2023-12-07T04:29:44.313Z,88.83
2023-12-07T04:32:12.082Z,88.97
2023-12-07T04:34:40.721Z,89.01
2023-12-07T04:37:08.400Z,89.27
2023-12-07T04:39:36.074Z,89.12
2023-12-07T04:42:03.692Z,89.25
2023-12-07T04:44:31.585Z,89.01
2023-12-07T04:46:59.267Z,88.65
2023-12-07T04:49:26.894Z,89.02
2023-12-07T04:51:54.507Z,88.84
2023-12-07T04:54:22.157Z,89.24
2023-12-07T04:56:49.759Z,89.01
2023-12-07T04:59:18.939Z,88.49
2023-12-07T05:01:46.787Z,88.48
2023-12-07T05:04:15.676Z,88.73
2023-12-07T05:06:43.665Z,89.11
2023-12-07T05:09:12.175Z,89.04
2023-12-07T05:11:39.997Z,88.51
2023-12-07T05:14:08.546Z,88.68
2023-12-07T05:16:36.348Z,88.36
2023-12-07T05:19:04.774Z,88.77
2023-12-07T05:21:32.445Z,88.28
2023-12-07T05:24:00.743Z,88.60
2023-12-07T05:26:28.338Z,89.19
2023-12-07T05:28:56.235Z,88.47
2023-12-07T05:31:24.118Z,88.52
2023-12-07T05:33:51.837Z,89.33
2023-12-07T05:36:19.497Z,88.63
2023-12-07T05:38:47.212Z,89.01
2023-12-07T05:41:15.226Z,88.97
2023-12-07T05:43:42.899Z,88.65
2023-12-07T05:46:10.759Z,88.34
2023-12-07T05:48:39.057Z,88.36
2023-12-07T05:51:07.191Z,88.15
2023-12-07T05:53:34.953Z,89.02
2023-12-07T05:56:04.838Z,88.55
2023-12-07T05:58:33.654Z,88.24
2023-12-07T06:01:01.500Z,88.74
2023-12-07T06:03:29.264Z,88.77
2023-12-07T06:05:57.006Z,89.05
2023-12-07T06:08:25.184Z,88.80
2023-12-07T06:10:52.840Z,88.29
2023-12-07T06:13:21.237Z,89.08
2023-12-07T06:15:48.945Z,88.38
2023-12-07T06:18:18.245Z,89.04
2023-12-07T06:20:46.532Z,88.79
2023-12-07T06:23:14.173Z,88.64
2023-12-07T06:25:41.815Z,88.78
2023-12-07T06:28:09.460Z,88.17
2023-12-07T06:30:37.329Z,88.77
2023-12-07T06:33:05.010Z,88.59
2023-12-07T06:35:32.968Z,88.02
2023-12-07T06:38:01.014Z,88.15
2023-12-07T06:40:28.720Z,89.07
2023-12-07T06:42:56.383Z,88.08
2023-12-07T06:45:24.097Z,88.58
2023-12-07T06:47:52.823Z,88.49
2023-12-07T06:50:22.561Z,88.84
2023-12-07T06:52:50.326Z,88.60
2023-12-07T06:55:18.014Z,88.61
2023-12-07T06:57:46.326Z,88.33
2023-12-07T07:00:14.168Z,88.53
2023-12-07T07:02:41.935Z,88.54
2023-12-07T07:05:12.843Z,88.45
2023-12-07T07:07:40.794Z,88.86
2023-12-07T07:10:11.034Z,89.06
2023-12-07T07:12:38.742Z,88.48
2023-12-07T07:15:06.518Z,88.24
2023-12-07T07:17:34.229Z,88.53
2023-12-07T07:20:02.240Z,88.61
2023-12-07T07:22:30.057Z,88.65
2023-12-07T07:24:57.712Z,89.33
2023-12-07T07:27:26.355Z,88.37
2023-12-07T07:29:54.520Z,88.52
2023-12-07T07:32:22.230Z,89.03
2023-12-07T07:34:49.983Z,89.08
2023-12-07T07:37:17.973Z,88.78
2023-12-07T07:39:46.750Z,88.81
2023-12-07T07:42:14.501Z,89.36
2023-12-07T07:44:42.613Z,89.11
2023-12-07T07:47:10.446Z,88.63
2023-12-07T07:49:38.502Z,89.44
2023-12-07T07:52:06.522Z,89.05
2023-12-07T07:54:34.196Z,89.05
2023-12-07T07:57:01.838Z,88.91
2023-12-07T07:59:29.505Z,88.76
2023-12-07T08:01:57.196Z,89.57
2023-12-07T08:04:25.350Z,88.97
2023-12-07T08:06:53.083Z,88.62
2023-12-07T08:09:20.838Z,89.40
2023-12-07T08:11:48.532Z,89.06
2023-12-07T08:14:16.293Z,88.89
2023-12-07T08:16:44.013Z,89.28
2023-12-07T08:19:11.763Z,89.23
2023-12-07T08:21:40.179Z,88.94
2023-12-07T08:24:08.036Z,89.38
2023-12-07T08:26:36.010Z,89.20
2023-12-07T08:29:05.452Z,88.76
2023-12-07T08:31:34.174Z,89.12
2023-12-07T08:34:02.373Z,89.01
2023-12-07T08:36:30.716Z,88.61
2023-12-07T08:38:58.422Z,88.62
2023-12-07T08:41:26.977Z,88.58
2023-12-07T08:43:55.033Z,89.19
2023-12-07T08:46:22.929Z,88.74
2023-12-07T08:48:50.957Z,88.59
2023-12-07T08:51:18.762Z,88.39
2023-12-07T08:53:48.304Z,88.55
2023-12-07T08:56:16.782Z,88.48
2023-12-07T08:58:45.622Z,88.33
2023-12-07T09:01:22.896Z,87.98
2023-12-07T09:03:58.134Z,88.25
2023-12-07T09:06:26.437Z,88.09
2023-12-07T09:08:54.342Z,87.95
2023-12-07T09:11:22.476Z,87.96
2023-12-07T09:13:50.306Z,88.10
2023-12-07T09:16:18.835Z,88.17
2023-12-07T09:18:47.563Z,88.12
2023-12-07T09:21:16.074Z,88.47
2023-12-07T09:23:44.417Z,87.89
2023-12-07T09:26:12.294Z,87.82
2023-12-07T09:28:41.043Z,88.19
2023-12-07T09:31:09.240Z,88.14
2023-12-07T09:33:37.225Z,87.92
2023-12-07T09:36:09.420Z,87.90
2023-12-07T09:38:37.304Z,87.79
2023-12-07T09:41:05.026Z,87.78
2023-12-07T09:43:32.793Z,87.54
2023-12-07T09:46:01.045Z,86.93
2023-12-07T09:48:29.722Z,86.96
2023-12-07T09:50:57.566Z,86.72
2023-12-07T09:53:26.855Z,86.55
2023-12-07T09:55:54.645Z,86.80
2023-12-07T09:58:31.707Z,86.19
2023-12-07T10:01:06.542Z,85.46
2023-12-07T10:03:35.404Z,85.62
2023-12-07T10:06:03.200Z,85.36
2023-12-07T10:08:30.064Z,84.87
2023-12-07T10:10:57.834Z,84.80
2023-12-07T10:13:26.979Z,84.87
2023-12-07T10:15:55.298Z,84.29
2023-12-07T10:18:23.030Z,84.36
2023-12-07T10:20:50.841Z,84.06
2023-12-07T10:23:19.174Z,84.20
2023-12-07T10:25:47.042Z,84.19
2023-12-07T10:28:18.233Z,83.52
2023-12-07T10:30:46.340Z,82.25
2023-12-07T10:33:15.044Z,81.78
2023-12-07T10:35:43.728Z,81.68
2023-12-07T10:38:11.957Z,81.04
2023-12-07T10:40:39.737Z,80.20
2023-12-07T10:43:07.780Z,79.28
2023-12-07T10:45:36.213Z,79.11
2023-12-07T10:48:04.493Z,78.25
2023-12-07T10:50:32.331Z,78.74
2023-12-07T10:53:00.777Z,78.85
2023-12-07T10:55:29.133Z,79.13
2023-12-07T10:57:57.192Z,79.46
2023-12-07T11:00:37.418Z,79.72
2023-12-07T11:03:13.273Z,79.61
2023-12-07T11:05:41.520Z,80.09
2023-12-07T11:08:10.762Z,80.25
2023-12-07T11:10:38.910Z,80.45
2023-12-07T11:13:08.339Z,80.27
2023-12-07T11:15:36.270Z,80.66
2023-12-07T11:18:04.543Z,80.62
2023-12-07T11:20:32.436Z,80.69
2023-12-07T11:23:00.221Z,80.53
2023-12-07T11:25:28.071Z,80.26
2023-12-07T11:27:56.028Z,79.84
2023-12-07T11:30:23.812Z,79.94
2023-12-07T11:32:51.735Z,79.32
2023-12-07T11:35:19.779Z,77.98
2023-12-07T11:37:47.679Z,77.23
2023-12-07T11:40:15.932Z,77.13
2023-12-07T11:42:44.586Z,76.53
2023-12-07T11:45:12.580Z,76.67
2023-12-07T11:47:40.442Z,75.42
2023-12-07T11:50:08.488Z,75.01
2023-12-07T11:52:36.609Z,74.24
2023-12-07T11:55:04.447Z,72.78
2023-12-07T11:57:32.331Z,72.07
2023-12-07T12:00:00.792Z,73.17
2023-12-07T12:02:28.755Z,73.46
2023-12-07T12:04:56.956Z,75.20
2023-12-07T12:07:26.926Z,76.02
2023-12-07T12:09:54.862Z,75.55
2023-12-07T12:12:22.720Z,74.61
2023-12-07T12:14:50.571Z,72.76
2023-12-07T12:17:18.889Z,73.45
2023-12-07T12:19:46.860Z,72.85
2023-12-07T12:22:15.013Z,72.71
2023-12-07T12:24:42.984Z,72.59
2023-12-07T12:27:10.809Z,72.61
2023-12-07T12:29:38.739Z,73.25
2023-12-07T12:32:07.151Z,74.37
2023-12-07T12:34:36.357Z,74.25
2023-12-07T12:37:07.309Z,73.76
2023-12-07T12:39:35.964Z,72.77
2023-12-07T12:42:04.459Z,73.47
2023-12-07T12:44:37.651Z,73.40
2023-12-07T12:47:06.587Z,73.05
2023-12-07T12:49:34.406Z,72.87
2023-12-07T12:52:02.366Z,71.61
2023-12-07T12:54:32.899Z,71.90
2023-12-07T12:57:00.959Z,72.46
2023-12-07T12:59:28.815Z,72.91
2023-12-07T13:01:58.296Z,74.45
2023-12-07T13:04:26.835Z,74.10
2023-12-07T13:06:58.486Z,74.40
2023-12-07T13:09:26.246Z,74.61
2023-12-07T13:11:54.031Z,75.47
2023-12-07T13:14:21.995Z,75.80
2023-12-07T13:16:49.909Z,76.50
2023-12-07T13:19:18.200Z,76.52
2023-12-07T13:21:46.133Z,76.93
2023-12-07T13:24:14.296Z,76.38
2023-12-07T13:26:42.079Z,76.42
2023-12-07T13:29:15.302Z,75.28
2023-12-07T13:31:51.023Z,74.22
2023-12-07T13:34:23.773Z,73.60
2023-12-07T13:36:52.251Z,73.28
2023-12-07T13:39:29.938Z,74.11
2023-12-07T13:42:00.339Z,74.60
2023-12-07T13:44:29.565Z,75.63
2023-12-07T13:46:58.256Z,76.32
2023-12-07T13:49:32.817Z,76.79
2023-12-07T13:52:06.721Z,77.16
2023-12-07T13:57:09.462Z,77.49
2023-12-07T13:59:38.565Z,77.48
2023-12-07T14:02:06.434Z,77.76
2023-12-07T14:04:34.536Z,77.49
2023-12-07T14:07:02.408Z,77.55
2023-12-07T14:09:31.162Z,77.39
2023-12-07T14:11:58.994Z,76.94
2023-12-07T14:14:26.819Z,76.27
2023-12-07T14:17:07.268Z,76.81
2023-12-07T14:19:39.808Z,76.48
2023-12-07T14:22:09.563Z,76.70
2023-12-07T14:24:37.889Z,76.63
2023-12-07T14:27:06.114Z,77.41
2023-12-07T14:29:34.709Z,77.91
2023-12-07T14:32:04.575Z,77.84
2023-12-07T14:34:35.383Z,78.22
2023-12-07T14:37:07.623Z,78.84
2023-12-07T14:39:36.270Z,79.00
2023-12-07T14:42:04.262Z,78.97
2023-12-07T14:44:32.133Z,79.19
2023-12-07T14:47:00.832Z,79.33
2023-12-07T14:49:28.702Z,79.96
2023-12-07T14:51:57.237Z,80.39
2023-12-07T14:54:29.229Z,80.61
2023-12-07T14:56:58.703Z,80.11
2023-12-07T14:59:26.814Z,80.77
2023-12-07T15:01:54.783Z,81.00
2023-12-07T15:04:28.659Z,80.92
2023-12-07T15:07:01.934Z,81.21
2023-12-07T15:09:30.540Z,81.12
2023-12-07T15:11:59.073Z,81.46
2023-12-07T15:14:34.596Z,81.07
2023-12-07T15:17:06.978Z,81.79
2023-12-07T15:19:35.616Z,81.71
2023-12-07T15:22:04.091Z,81.92
2023-12-07T15:24:35.412Z,82.11
2023-12-07T15:27:04.828Z,81.66
2023-12-07T15:29:33.145Z,82.07
2023-12-07T15:32:00.902Z,82.18
2023-12-07T15:34:37.652Z,82.38
2023-12-07T15:37:07.956Z,82.15
2023-12-07T15:39:36.016Z,81.70
2023-12-07T15:42:04.293Z,82.27
2023-12-07T15:44:32.849Z,81.87
2023-12-07T15:47:01.075Z,82.38
2023-12-07T15:49:29.159Z,82.55
2023-12-07T15:51:59.966Z,82.53
2023-12-07T15:54:37.349Z,82.59
2023-12-07T15:57:09.358Z,81.99
2023-12-07T15:59:38.821Z,82.40
2023-12-07T16:02:06.824Z,82.43
2023-12-07T16:04:36.537Z,81.59
2023-12-07T16:07:07.379Z,81.92
2023-12-07T16:09:38.146Z,82.34
2023-12-07T16:12:07.716Z,82.75
2023-12-07T16:14:36.962Z,82.36
2023-12-07T16:17:05.063Z,82.21
2023-12-07T16:19:33.346Z,82.63
2023-12-07T16:22:01.468Z,82.10
2023-12-07T16:24:29.512Z,81.81
2023-12-07T16:26:57.896Z,82.08
2023-12-07T16:29:25.757Z,81.94
2023-12-07T16:31:53.897Z,82.77
2023-12-07T16:34:23.168Z,82.24
2023-12-07T16:36:51.043Z,82.09
2023-12-07T16:39:19.040Z,82.15
2023-12-07T16:41:54.687Z,82.08
2023-12-07T16:44:27.149Z,82.21
2023-12-07T16:46:55.202Z,82.42
2023-12-07T16:49:23.867Z,82.60
2023-12-07T16:51:51.879Z,82.25
2023-12-07T16:54:19.844Z,82.32
2023-12-07T16:56:48.198Z,82.13
2023-12-07T16:59:17.699Z,82.33
2023-12-07T17:01:45.800Z,82.87
2023-12-07T17:04:13.837Z,82.58
2023-12-07T17:06:50.454Z,82.06
2023-12-07T17:09:25.266Z,82.56
2023-12-07T17:11:53.489Z,82.73
2023-12-07T17:14:21.345Z,82.44
2023-12-07T17:16:50.336Z,82.61
2023-12-07T17:19:18.308Z,82.70
2023-12-07T17:21:46.233Z,82.65
2023-12-07T17:24:16.046Z,82.83
2023-12-07T17:26:52.480Z,81.96
2023-12-07T17:29:22.446Z,82.27
2023-12-07T17:31:50.507Z,82.57
2023-12-07T17:34:18.675Z,82.68
2023-12-07T17:36:46.912Z,82.51
2023-12-07T17:39:16.481Z,82.83
2023-12-07T17:41:44.647Z,82.86
2023-12-07T17:44:12.767Z,82.65
2023-12-07T17:46:40.667Z,82.56
2023-12-07T17:49:09.994Z,82.42
2023-12-07T17:51:38.424Z,82.43
2023-12-07T17:57:10.848Z,82.31
2023-12-07T17:59:38.951Z,82.38
2023-12-07T18:02:06.814Z,82.33
2023-12-07T18:04:34.693Z,82.16
2023-12-07T18:07:04.115Z,82.65
2023-12-07T18:09:32.273Z,82.11
2023-12-07T18:12:00.441Z,81.97
2023-12-07T18:14:28.375Z,82.22
2023-12-07T18:16:56.200Z,82.25
2023-12-07T18:19:24.561Z,82.14
2023-12-07T18:21:52.577Z,82.22
2023-12-07T18:24:20.550Z,82.35
2023-12-07T18:26:48.614Z,81.59
2023-12-07T18:29:16.438Z,82.19
2023-12-07T18:31:47.326Z,82.03
2023-12-07T18:34:15.448Z,82.07
2023-12-07T18:36:43.188Z,82.00
2023-12-07T18:39:11.296Z,82.32
2023-12-07T18:41:39.379Z,82.10
2023-12-07T18:44:07.365Z,82.50
2023-12-07T18:46:36.066Z,82.31
2023-12-07T18:49:06.887Z,81.93
2023-12-07T18:51:34.961Z,81.72
2023-12-07T18:54:02.981Z,82.11
2023-12-07T18:56:30.995Z,82.62
2023-12-07T18:58:58.780Z,82.12
2023-12-07T19:01:26.766Z,82.16
2023-12-07T19:03:55.026Z,82.43
2023-12-07T19:06:23.060Z,82.05
2023-12-07T19:08:51.162Z,82.20
2023-12-07T19:11:19.820Z,81.78
2023-12-07T19:13:47.673Z,81.96
2023-12-07T19:16:16.601Z,82.72
2023-12-07T19:18:44.808Z,81.82
2023-12-07T19:21:12.944Z,81.75
2023-12-07T19:23:41.017Z,81.79
2023-12-07T19:26:09.693Z,82.20
2023-12-07T19:28:37.675Z,81.81
2023-12-07T19:31:05.758Z,81.79
2023-12-07T19:33:34.396Z,81.95
2023-12-07T19:36:02.765Z,81.87
2023-12-07T19:38:30.624Z,82.19
2023-12-07T19:40:58.701Z,82.23
2023-12-07T19:43:26.574Z,81.69
2023-12-07T19:45:54.554Z,82.24
2023-12-07T19:48:24.226Z,81.78
2023-12-07T19:50:52.166Z,81.59
2023-12-07T19:53:21.419Z,82.30
2023-12-07T19:55:49.370Z,81.84
2023-12-07T19:58:17.344Z,81.88
2023-12-07T20:00:45.341Z,81.45
2023-12-07T20:03:13.408Z,82.28
2023-12-07T20:05:41.343Z,81.49
2023-12-07T20:08:09.296Z,81.98
2023-12-07T20:10:38.748Z,82.13
2023-12-07T20:13:06.683Z,81.74
2023-12-07T20:15:34.972Z,81.40
2023-12-07T20:18:03.020Z,81.92
2023-12-07T20:20:31.027Z,81.73
2023-12-07T20:22:58.954Z,81.42
2023-12-07T20:25:27.007Z,81.82
2023-12-07T20:27:54.889Z,82.12
2023-12-07T20:30:23.083Z,82.10
2023-12-07T20:32:51.038Z,81.68
2023-12-07T20:35:23.385Z,82.25
2023-12-07T20:37:52.774Z,81.93
2023-12-07T20:40:20.688Z,82.11
2023-12-07T20:42:48.584Z,81.42
2023-12-07T20:45:17.433Z,81.88
2023-12-07T20:47:45.360Z,81.04
2023-12-07T20:50:13.457Z,81.51
2023-12-07T20:52:47.210Z,81.20
2023-12-07T20:55:15.125Z,80.91
2023-12-07T20:57:43.653Z,81.19
2023-12-07T21:00:11.631Z,80.67
2023-12-07T21:02:39.565Z,80.69
2023-12-07T21:05:07.490Z,80.82
2023-12-07T21:07:38.500Z,80.75
2023-12-07T21:10:06.456Z,81.13
2023-12-07T21:12:34.262Z,80.38
2023-12-07T21:15:20.172Z,80.22
2023-12-07T21:17:48.123Z,80.86
2023-12-07T21:20:16.091Z,80.47
2023-12-07T21:22:43.990Z,80.12
2023-12-07T21:25:13.287Z,79.83
2023-12-07T21:27:41.035Z,79.08
2023-12-07T21:30:09.654Z,79.52
2023-12-07T21:32:37.864Z,79.22
2023-12-07T21:35:05.752Z,79.45
2023-12-07T21:37:33.865Z,79.36
2023-12-07T21:40:01.841Z,78.95
2023-12-07T21:42:30.988Z,78.88
2023-12-07T21:44:58.982Z,79.60
2023-12-07T21:47:27.399Z,79.41
2023-12-07T21:49:55.488Z,79.23
2023-12-07T21:52:24.156Z,79.42
2023-12-07T21:54:52.114Z,79.07
2023-12-07T21:57:21.383Z,78.98
2023-12-07T21:59:51.199Z,78.53
2023-12-07T22:02:19.137Z,78.54
2023-12-07T22:04:46.902Z,78.35
2023-12-07T22:07:15.380Z,78.63
2023-12-07T22:09:43.161Z,78.33
2023-12-07T22:12:10.995Z,77.71
2023-12-07T22:14:39.830Z,77.39
2023-12-07T22:17:07.621Z,77.24
2023-12-07T22:19:36.184Z,77.05
2023-12-07T22:22:04.536Z,77.61
2023-12-07T22:24:32.433Z,76.80
2023-12-07T22:27:00.289Z,77.42
2023-12-07T22:29:29.421Z,77.03
2023-12-07T22:31:58.367Z,77.39
2023-12-07T22:34:26.476Z,76.86
2023-12-07T22:36:54.445Z,77.41
2023-12-07T22:39:22.172Z,76.96
2023-12-07T22:41:49.962Z,76.98
2023-12-07T22:44:18.066Z,76.93
2023-12-07T22:46:45.892Z,76.69
2023-12-07T22:49:14.880Z,76.62
2023-12-07T22:51:42.843Z,76.48
2023-12-07T22:54:11.131Z,76.50
2023-12-07T22:56:39.332Z,76.54
2023-12-07T22:59:07.124Z,76.14
2023-12-07T23:01:34.825Z,76.05
2023-12-07T23:04:02.541Z,75.89
2023-12-07T23:06:30.556Z,75.81
2023-12-07T23:08:58.389Z,76.05
2023-12-07T23:11:26.056Z,75.83
2023-12-07T23:13:53.801Z,75.54
2023-12-07T23:16:26.185Z,75.50
2023-12-07T23:18:53.978Z,76.11
2023-12-07T23:21:21.724Z,75.77
2023-12-07T23:23:49.534Z,75.57
2023-12-07T23:26:17.603Z,76.01
2023-12-07T23:28:45.616Z,75.69
2023-12-07T23:31:13.267Z,76.04
2023-12-07T23:33:41.157Z,75.69
2023-12-07T23:36:09.631Z,75.41
2023-12-07T23:38:37.601Z,75.59
2023-12-07T23:41:05.287Z,75.83
2023-12-07T23:43:33.243Z,75.56
2023-12-07T23:46:00.927Z,75.84
2023-12-07T23:48:28.688Z,76.36
2023-12-07T23:50:56.784Z,75.60
2023-12-07T23:53:24.454Z,75.78
2023-12-07T23:55:52.085Z,75.70
2023-12-07T23:58:20.696Z,76.17
